Time;durP1;ratioP1;P1;durP2;ratioP2;P2;SDS_P1;SDS_P2;PMS_P1;PMS_P2;Temp;Humidity;BMP_temperature;BMP_pressure;BME280_temperature;BME280_humidity;BME280_pressure;Samples;Min_cycle;Max_cycle;Signal;HPM_P1;HPM_P2
2021/05/19 00:00:01;;;;;;;22.13;5.57;;;11.30;99.90;;;;;;4874016;29;20065;-87
2021/05/19 00:02:52;;;;;;;14.10;4.55;;;11.30;99.90;;;;;;4859652;29;20068;-88
2021/05/19 00:05:22;;;;;;;18.38;5.38;;;11.30;99.90;;;;;;4873360;29;20071;-88
2021/05/19 00:07:51;;;;;;;11.43;4.70;;;12.10;99.90;;;;;;4871457;29;20059;-88
2021/05/19 00:10:20;;;;;;;27.60;8.38;;;11.30;99.90;;;;;;4857664;29;20064;-88
2021/05/19 00:12:48;;;;;;;19.48;5.43;;;11.20;99.90;;;;;;4869169;29;20060;-88
2021/05/19 00:15:17;;;;;;;17.63;5.15;;;11.30;99.90;;;;;;4858895;29;20057;-88
2021/05/19 00:17:47;;;;;;;16.70;5.10;;;11.30;99.90;;;;;;4885664;29;20061;-88
2021/05/19 00:20:18;;;;;;;18.98;3.63;;;11.10;99.90;;;;;;4840697;29;20057;-88
2021/05/19 00:22:48;;;;;;;15.00;3.67;;;11.30;99.90;;;;;;4573820;29;10000490;-88
2021/05/19 00:25:17;;;;;;;22.10;3.92;;;11.30;99.90;;;;;;4872137;29;20265;-87
2021/05/19 00:27:48;;;;;;;19.40;4.73;;;11.30;99.90;;;;;;4856948;29;20071;-86
2021/05/19 00:30:21;;;;;;;12.07;4.13;;;11.30;99.90;;;;;;4887970;29;20493;-87
2021/05/19 00:32:50;;;;;;;16.58;4.65;;;11.30;99.90;;;;;;4888652;29;20056;-87
2021/05/19 00:35:24;;;;;;;14.48;3.85;;;12.00;99.90;;;;;;4858043;29;20049;-87
2021/05/19 00:37:59;;;;;;;9.10;3.60;;;11.30;99.90;;;;;;4866701;29;20086;-89
2021/05/19 00:40:30;;;;;;;12.15;3.72;;;11.30;99.90;;;;;;4870080;29;20049;-88
2021/05/19 00:42:59;;;;;;;12.57;4.70;;;11.30;99.90;;;;;;4867963;29;20056;-88
2021/05/19 00:45:28;;;;;;;14.68;4.40;;;11.30;99.90;;;;;;4857884;29;20052;-88
2021/05/19 00:48:04;;;;;;;10.98;3.95;;;11.30;99.90;;;;;;4857006;29;20053;-88
2021/05/19 00:50:33;;;;;;;10.18;3.30;;;11.30;99.90;;;;;;4896248;29;20053;-88
2021/05/19 00:53:00;;;;;;;11.45;2.97;;;11.30;99.90;;;;;;4855126;29;20057;-88
2021/05/19 00:55:28;;;;;;;9.88;3.15;;;11.30;99.90;;;;;;4856565;29;20041;-88
2021/05/19 00:57:59;;;;;;;10.80;3.10;;;11.30;99.90;;;;;;4856569;29;20148;-87
2021/05/19 01:00:35;;;;;;;14.65;4.60;;;11.30;99.90;;;;;;4859319;29;20060;-88
2021/05/19 01:03:14;;;;;;;15.38;4.05;;;11.40;99.90;;;;;;4860132;29;20055;-87
2021/05/19 01:05:57;;;;;;;7.88;2.78;;;11.30;99.90;;;;;;4892298;29;20068;-87
2021/05/19 01:11:18;;;;;;;7.57;2.97;;;11.30;99.90;;;;;;4870721;29;20053;-88
2021/05/19 01:13:51;;;;;;;8.60;2.45;;;11.20;99.90;;;;;;4880477;29;20080;-88
2021/05/19 01:16:20;;;;;;;6.07;2.97;;;11.20;99.90;;;;;;4870142;29;20057;-88
2021/05/19 01:18:48;;;;;;;8.38;2.80;;;11.20;99.90;;;;;;4855695;29;20131;-88
2021/05/19 01:21:17;;;;;;;9.57;2.53;;;11.20;99.90;;;;;;4885360;29;20053;-88
2021/05/19 01:23:47;;;;;;;6.28;3.13;;;11.30;99.90;;;;;;4885923;29;20056;-87
2021/05/19 01:26:16;;;;;;;;;;;11.20;99.90;;;;;;4870727;29;20057;-87
2021/05/19 01:28:45;;;;;;;5.22;2.60;;;11.10;99.90;;;;;;4869273;29;19928;-87
2021/05/19 01:31:16;;;;;;;;;;;11.10;99.90;;;;;;4855783;29;20057;-87
2021/05/19 01:33:49;;;;;;;9.35;3.67;;;11.10;99.90;;;;;;4883728;29;19928;-87
2021/05/19 01:36:19;;;;;;;4.63;3.00;;;11.10;99.90;;;;;;4850390;29;20049;-87
2021/05/19 01:38:47;;;;;;;7.65;2.28;;;11.10;99.90;;;;;;4870291;29;20055;-89
2021/05/19 01:41:17;;;;;;;13.50;3.25;;;11.20;99.90;;;;;;4855549;29;20069;-87
2021/05/19 01:43:46;;;;;;;9.57;2.35;;;11.10;99.90;;;;;;4847553;29;20061;-89
2021/05/19 01:46:15;;;;;;;6.88;2.60;;;11.00;99.90;;;;;;4883468;29;20053;-88
2021/05/19 01:48:45;;;;;;;11.02;2.88;;;11.00;99.90;;;;;;4870676;29;20106;-87
2021/05/19 01:51:13;;;;;;;6.80;3.33;;;10.80;99.90;;;;;;4856280;29;20059;-87
2021/05/19 01:53:42;;;;;;;13.40;3.25;;;11.00;99.90;;;;;;4867224;29;20060;-89
2021/05/19 01:56:10;;;;;;;8.18;2.60;;;11.00;99.90;;;;;;4901010;29;20052;-88
2021/05/19 01:58:40;;;;;;;10.82;3.03;;;11.00;99.90;;;;;;4886387;29;20057;-88
2021/05/19 02:01:10;;;;;;;8.45;3.60;;;11.00;99.90;;;;;;4853352;29;20052;-88
2021/05/19 02:03:41;;;;;;;7.93;2.55;;;11.00;99.90;;;;;;4851873;29;20049;-88
2021/05/19 02:06:16;;;;;;;8.43;3.70;;;11.00;99.90;;;;;;4871506;29;20045;-88
2021/05/19 02:08:50;;;;;;;4.97;2.10;;;11.00;99.90;;;;;;4871680;29;20053;-88
2021/05/19 02:11:20;;;;;;;11.70;3.95;;;11.00;99.90;;;;;;4892276;29;20055;-88
2021/05/19 02:13:51;;;;;;;4.15;2.35;;;11.00;99.90;;;;;;4862629;29;20060;-88
2021/05/19 02:16:22;;;;;;;10.50;3.83;;;11.10;99.90;;;;;;4876809;29;20057;-88
2021/05/19 02:18:55;;;;;;;6.97;2.28;;;11.00;99.90;;;;;;4893618;29;20059;-88
2021/05/19 02:21:27;;;;;;;7.35;2.33;;;10.90;99.90;;;;;;4883969;29;20497;-88
2021/05/19 02:24:10;;;;;;;8.40;2.13;;;10.90;99.90;;;;;;4891187;29;20057;-88
2021/05/19 02:26:40;;;;;;;6.07;2.22;;;10.90;99.90;;;;;;4873858;29;20055;-88
2021/05/19 02:29:14;;;;;;;9.50;3.30;;;10.90;99.90;;;;;;4874553;29;20053;-89
2021/05/19 02:31:43;;;;;;;3.28;2.00;;;10.90;99.90;;;;;;4885493;29;20718;-89
2021/05/19 02:34:14;;;;;;;8.25;3.03;;;10.90;99.90;;;;;;4871557;29;20064;-88
2021/05/19 02:36:47;;;;;;;5.82;1.90;;;10.90;99.90;;;;;;4857213;29;20053;-89
2021/05/19 02:39:16;;;;;;;10.82;2.75;;;11.60;99.90;;;;;;4889681;29;20057;-87
2021/05/19 02:41:48;;;;;;;11.02;2.45;;;10.90;99.90;;;;;;4873349;29;20080;-88
2021/05/19 02:44:20;;;;;;;4.13;1.80;;;10.90;99.90;;;;;;4859317;29;20061;-87
2021/05/19 02:46:50;;;;;;;11.23;2.88;;;10.80;99.90;;;;;;4882800;29;20057;-88
2021/05/19 02:49:20;;;;;;;8.63;5.60;;;11.60;99.90;;;;;;4882676;29;20063;-87
2021/05/19 02:51:49;;;;;;;3.85;1.90;;;11.40;99.90;;;;;;4857537;29;20053;-87
2021/05/19 02:54:18;;;;;;;6.85;2.10;;;11.00;99.90;;;;;;4879465;29;20067;-88
2021/05/19 02:56:47;;;;;;;8.65;2.05;;;11.00;99.90;;;;;;4872524;29;20490;-88
2021/05/19 02:59:14;;;;;;;7.28;2.30;;;10.70;99.90;;;;;;4858569;29;20068;-87
2021/05/19 03:01:43;;;;;;;9.20;2.58;;;10.60;99.90;;;;;;4889776;29;20409;-88
2021/05/19 03:04:11;;;;;;;3.75;2.22;;;10.60;99.90;;;;;;4888067;29;20088;-88
2021/05/19 03:06:45;;;;;;;5.57;3.20;;;10.50;99.90;;;;;;4888284;29;20076;-87
2021/05/19 03:09:14;;;;;;;6.45;2.35;;;10.50;99.90;;;;;;4875665;29;20094;-88
2021/05/19 03:11:42;;;;;;;5.22;2.70;;;10.50;99.90;;;;;;4889526;29;20060;-88
2021/05/19 03:14:12;;;;;;;8.77;2.60;;;10.40;99.90;;;;;;4883683;29;20048;-87
2021/05/19 03:16:41;;;;;;;5.18;2.50;;;10.40;99.90;;;;;;4870840;29;20050;-87
2021/05/19 03:19:09;;;;;;;6.82;3.15;;;10.40;99.90;;;;;;4861140;29;20065;-88
2021/05/19 03:21:37;;;;;;;5.55;2.88;;;10.40;99.90;;;;;;4890577;29;20060;-88
2021/05/19 03:24:07;;;;;;;7.25;2.58;;;10.40;99.90;;;;;;4889525;29;20053;-88
2021/05/19 03:26:38;;;;;;;8.13;1.98;;;10.40;99.90;;;;;;4858307;29;20042;-87
2021/05/19 03:29:06;;;;;;;3.90;2.33;;;10.40;99.90;;;;;;4874302;29;20072;-88
2021/05/19 03:31:37;;;;;;;7.07;3.28;;;10.50;99.90;;;;;;4871123;29;20046;-87
2021/05/19 03:34:06;;;;;;;9.20;2.55;;;10.50;99.90;;;;;;4890102;29;20053;-87
2021/05/19 03:36:35;;;;;;;5.47;2.40;;;10.50;99.90;;;;;;4888100;29;20390;-88
2021/05/19 03:39:08;;;;;;;6.80;2.38;;;10.50;99.90;;;;;;4889150;29;20065;-87
2021/05/19 03:41:37;;;;;;;6.28;2.65;;;10.50;99.90;;;;;;4872290;29;20041;-88
2021/05/19 03:44:06;;;;;;;5.53;2.60;;;10.50;99.90;;;;;;4888982;29;20053;-88
2021/05/19 03:46:35;;;;;;;3.92;2.40;;;10.60;99.90;;;;;;4884295;29;20056;-87
2021/05/19 03:49:05;;;;;;;5.60;3.45;;;10.60;99.90;;;;;;4889784;29;20064;-87
2021/05/19 03:51:35;;;;;;;6.18;2.65;;;10.60;99.90;;;;;;4889864;29;20064;-88
2021/05/19 03:54:06;;;;;;;5.50;2.42;;;10.60;99.90;;;;;;4870917;29;20061;-88
2021/05/19 03:56:44;;;;;;;9.80;3.20;;;10.80;99.90;;;;;;4881777;29;20057;-87
2021/05/19 03:59:16;;;;;;;4.75;2.75;;;10.60;99.90;;;;;;4864216;29;20050;-87
2021/05/19 04:01:44;;;;;;;5.72;2.30;;;10.70;99.90;;;;;;4871357;29;20065;-88
2021/05/19 04:04:12;;;;;;;8.02;2.80;;;10.00;99.90;;;;;;4854349;29;20053;-88
2021/05/19 04:06:40;;;;;;;7.43;2.72;;;11.00;99.90;;;;;;4857730;29;20057;-87
2021/05/19 04:09:13;;;;;;;7.47;2.38;;;10.70;99.90;;;;;;4888494;29;20053;-87
2021/05/19 04:11:42;;;;;;;2.80;1.92;;;10.60;99.90;;;;;;4875271;29;20152;-87
2021/05/19 04:14:12;;;;;;;5.35;2.13;;;9.50;99.90;;;;;;4881120;29;20049;-87
2021/05/19 04:16:44;;;;;;;6.22;2.33;;;11.60;99.90;;;;;;4903947;29;20053;-88
2021/05/19 04:19:13;;;;;;;3.80;1.50;;;10.60;99.90;;;;;;4869955;29;20050;-88
2021/05/19 04:21:41;;;;;;;2.92;1.70;;;10.90;99.90;;;;;;4882217;29;20787;-87
2021/05/19 04:24:09;;;;;;;4.18;1.85;;;10.50;99.90;;;;;;4889138;29;20064;-88
2021/05/19 04:26:37;;;;;;;2.83;1.95;;;10.90;99.90;;;;;;4900426;29;20497;-87
2021/05/19 04:29:08;;;;;;;1.70;1.60;;;10.50;99.90;;;;;;4849919;29;20771;-87
2021/05/19 04:31:37;;;;;;;2.65;1.60;;;10.60;99.90;;;;;;4871784;29;20057;-88
2021/05/19 04:34:08;;;;;;;3.08;1.67;;;10.50;99.90;;;;;;4874444;29;20493;-87
2021/05/19 04:36:45;;;;;;;2.08;1.83;;;9.40;99.90;;;;;;4887189;29;20068;-88
2021/05/19 04:39:14;;;;;;;3.47;1.60;;;10.50;99.90;;;;;;4872325;29;20064;-88
2021/05/19 04:41:48;;;;;;;;;;;10.70;99.90;;;;;;4889170;29;20063;-87
2021/05/19 04:44:20;;;;;;;2.17;1.90;;;10.50;99.90;;;;;;4892173;29;19939;-87
2021/05/19 04:46:48;;;;;;;2.13;1.90;;;10.50;99.90;;;;;;4888149;29;20053;-87
2021/05/19 04:49:25;;;;;;;4.38;2.85;;;10.50;99.90;;;;;;4870200;29;20049;-87
2021/05/19 04:52:00;;;;;;;5.13;2.30;;;10.50;99.90;;;;;;4875963;29;20694;-88
2021/05/19 04:54:35;;;;;;;7.07;2.58;;;10.50;99.90;;;;;;4884180;29;20056;-87
2021/05/19 04:57:04;;;;;;;4.20;2.30;;;10.50;99.90;;;;;;4867461;29;20061;-88
2021/05/19 04:59:36;;;;;;;3.65;2.00;;;10.60;99.90;;;;;;4884513;29;20057;-88
2021/05/19 05:02:10;;;;;;;5.57;2.13;;;10.60;99.90;;;;;;4868360;29;20056;-88
2021/05/19 05:04:47;;;;;;;6.93;2.67;;;10.60;99.90;;;;;;4885478;29;20049;-88
2021/05/19 05:07:22;;;;;;;2.58;2.13;;;10.60;99.90;;;;;;4887166;29;20067;-88
2021/05/19 05:09:50;;;;;;;7.88;2.67;;;10.60;99.90;;;;;;4886367;29;20362;-87
2021/05/19 05:12:26;;;;;;;7.10;2.35;;;10.60;99.90;;;;;;4884310;29;20064;-88
2021/05/19 05:14:57;;;;;;;3.95;2.10;;;10.70;99.90;;;;;;4886883;29;20085;-87
2021/05/19 05:17:27;;;;;;;3.70;2.15;;;10.70;99.90;;;;;;4880442;29;20049;-87
2021/05/19 05:19:55;;;;;;;2.53;2.28;;;10.80;99.90;;;;;;4845292;29;20060;-87
2021/05/19 05:22:24;;;;;;;6.25;2.33;;;10.80;99.90;;;;;;4870863;29;20465;-87
2021/05/19 05:24:57;;;;;;;3.70;2.38;;;10.80;99.90;;;;;;4858788;29;20896;-87
2021/05/19 05:27:25;;;;;;;5.07;2.35;;;10.80;99.90;;;;;;4839957;29;20760;-88
2021/05/19 05:29:53;;;;;;;3.28;2.17;;;11.00;99.90;;;;;;4858871;29;20052;-87
2021/05/19 05:32:21;;;;;;;5.13;2.45;;;11.20;99.90;;;;;;4844795;29;20065;-87
2021/05/19 05:34:54;;;;;;;7.00;1.98;;;10.80;99.90;;;;;;4869784;29;20061;-88
2021/05/19 05:37:23;;;;;;;4.57;2.20;;;11.30;99.90;;;;;;4857634;29;20057;-88
2021/05/19 05:39:52;;;;;;;2.67;1.98;;;10.80;99.90;;;;;;4883341;29;20055;-88
2021/05/19 05:42:25;;;;;;;;;;;11.00;99.90;;;;;;4886932;29;20049;-88
2021/05/19 05:44:57;;;;;;;3.92;1.58;;;10.90;99.90;;;;;;4867731;29;19927;-88
2021/05/19 05:47:25;;;;;;;2.33;1.92;;;10.80;99.90;;;;;;4883084;29;20052;-87
2021/05/19 05:49:54;;;;;;;4.32;1.52;;;10.90;99.90;;;;;;4857575;29;20050;-89
2021/05/19 05:52:32;;;;;;;4.78;1.90;;;10.90;99.90;;;;;;4883210;29;20057;-88
2021/05/19 05:55:06;;;;;;;1.85;1.60;;;10.90;99.90;;;;;;4853981;29;20064;-88
2021/05/19 05:57:38;;;;;;;5.18;2.10;;;10.90;99.90;;;;;;4870036;29;20064;-87
2021/05/19 06:00:32;;;;;;;4.78;2.00;;;11.00;99.90;;;;;;4881292;29;20144;-87
2021/05/19 06:03:07;;;;;;;2.00;1.80;;;11.00;99.90;;;;;;4899518;29;20501;-87
2021/05/19 06:05:35;;;;;;;5.53;2.55;;;11.40;99.90;;;;;;4901581;29;20049;-87
2021/05/19 06:08:05;;;;;;;3.10;2.00;;;10.90;99.90;;;;;;4874656;29;20057;-87
2021/05/19 06:10:34;;;;;;;4.95;1.63;;;11.00;99.90;;;;;;4881807;29;20053;-88
2021/05/19 06:13:02;;;;;;;6.18;2.13;;;11.20;99.90;;;;;;4853376;29;20053;-88
2021/05/19 06:15:30;;;;;;;6.93;2.03;;;11.00;99.90;;;;;;4531150;29;10000226;-88
2021/05/19 06:18:05;;;;;;;4.38;2.13;;;11.00;99.90;;;;;;4846516;29;20572;-86
2021/05/19 06:20:33;;;;;;;5.50;2.15;;;11.10;99.90;;;;;;4868899;29;20049;-87
2021/05/19 06:23:00;;;;;;;3.50;2.08;;;11.00;99.90;;;;;;4881546;29;20453;-87
2021/05/19 06:25:29;;;;;;;2.85;2.00;;;11.00;99.90;;;;;;4871163;29;20670;-87
2021/05/19 06:27:57;;;;;;;5.43;1.75;;;11.00;99.90;;;;;;4876166;29;20060;-86
2021/05/19 06:30:28;;;;;;;3.10;2.00;;;11.40;99.90;;;;;;4873063;29;20068;-88
2021/05/19 06:32:56;;;;;;;2.92;2.05;;;11.80;99.90;;;;;;4866577;29;20060;-86
2021/05/19 06:35:24;;;;;;;4.90;2.85;;;12.00;99.90;;;;;;4872875;29;20045;-86
2021/05/19 06:37:54;;;;;;;3.10;2.42;;;10.90;99.90;;;;;;4869496;29;20520;-86
2021/05/19 06:40:23;;;;;;;4.20;2.08;;;10.90;99.90;;;;;;4865722;29;20052;-86
2021/05/19 06:43:05;;;;;;;2.58;1.73;;;10.90;99.90;;;;;;4868000;29;20060;-85
2021/05/19 06:45:35;;;;;;;3.50;2.10;;;10.80;99.90;;;;;;4888742;29;20072;-86
2021/05/19 06:48:03;;;;;;;2.90;1.67;;;10.90;99.90;;;;;;4861468;29;20064;-88
2021/05/19 06:50:31;;;;;;;5.90;2.83;;;10.80;99.90;;;;;;4874402;29;20386;-88
2021/05/19 06:52:59;;;;;;;3.22;2.45;;;11.00;99.90;;;;;;4874528;29;20068;-87
2021/05/19 06:55:27;;;;;;;6.88;3.33;;;10.90;99.90;;;;;;4861291;29;20064;-88
2021/05/19 06:57:56;;;;;;;7.82;2.70;;;10.90;99.90;;;;;;4874113;29;20073;-87
2021/05/19 07:00:50;;;;;;;3.38;2.65;;;11.80;99.90;;;;;;4854134;29;20077;-87
2021/05/19 07:03:43;;;;;;;5.88;2.80;;;11.00;99.90;;;;;;4891085;29;20038;-89
2021/05/19 07:06:12;;;;;;;9.25;2.58;;;11.30;99.90;;;;;;4889252;29;20052;-86
2021/05/19 07:08:41;;;;;;;4.68;2.72;;;11.00;99.90;;;;;;4858668;29;20055;-89
2021/05/19 07:11:10;;;;;;;6.22;2.70;;;11.10;99.90;;;;;;4841825;29;20061;-91
2021/05/19 07:13:49;;;;;;;10.27;3.35;;;11.10;99.90;;;;;;4867095;29;20053;-89
2021/05/19 07:16:23;;;;;;;4.20;2.78;;;11.10;99.90;;;;;;4860196;29;20103;-88
2021/05/19 07:18:56;;;;;;;3.65;2.45;;;11.10;99.90;;;;;;4827713;29;20060;-88
2021/05/19 07:21:24;;;;;;;7.40;4.45;;;11.10;99.90;;;;;;4821694;29;20069;-89
2021/05/19 07:23:52;;;;;;;5.43;3.67;;;11.10;99.90;;;;;;4850883;29;20065;-87
2021/05/19 07:26:22;;;;;;;6.95;3.22;;;11.10;99.90;;;;;;4855792;29;20060;-87
2021/05/19 07:28:52;;;;;;;13.50;4.85;;;11.10;99.90;;;;;;4859482;29;20573;-92
2021/05/19 07:31:20;;;;;;;9.52;4.15;;;11.00;99.90;;;;;;4820042;29;20061;-88
2021/05/19 07:33:48;;;;;;;5.57;3.40;;;11.10;99.90;;;;;;4857422;29;20478;-87
2021/05/19 07:36:16;;;;;;;7.97;3.83;;;11.10;99.90;;;;;;4823745;29;20049;-89
2021/05/19 07:38:44;;;;;;;13.25;4.90;;;11.10;99.90;;;;;;4855843;29;20054;-88
2021/05/19 07:41:12;;;;;;;6.22;3.67;;;11.20;99.90;;;;;;4855367;29;20069;-88
2021/05/19 07:43:40;;;;;;;4.32;3.28;;;11.20;99.90;;;;;;4824039;29;20124;-89
2021/05/19 07:46:08;;;;;;;7.35;3.95;;;11.20;99.90;;;;;;4855804;29;20485;-87
2021/05/19 07:48:35;;;;;;;7.75;4.22;;;11.20;99.90;;;;;;4843622;29;20051;-86
2021/05/19 07:51:01;;;;;;;11.38;4.63;;;11.10;99.90;;;;;;4840797;29;20042;-88
2021/05/19 07:53:28;;;;;;;13.43;7.30;;;11.40;99.90;;;;;;4839004;29;20030;-87
2021/05/19 07:56:01;;;;;;;8.50;5.20;;;11.20;99.90;;;;;;4837646;29;20056;-87
2021/05/19 07:58:36;;;;;;;8.90;5.63;;;11.20;99.90;;;;;;4855674;29;20045;-87
2021/05/19 08:03:32;;;;;;;15.75;6.10;;;11.20;99.90;;;;;;4873176;29;20042;-87
2021/05/19 08:05:59;;;;;;;11.63;5.57;;;11.20;99.90;;;;;;4857978;29;20049;-88
2021/05/19 08:08:27;;;;;;;11.25;6.45;;;11.20;99.90;;;;;;4851596;29;20053;-88
2021/05/19 08:10:55;;;;;;;10.70;6.88;;;11.20;99.90;;;;;;4856881;29;20052;-89
2021/05/19 08:13:21;;;;;;;16.58;9.18;;;11.40;99.90;;;;;;4874354;29;20044;-87
2021/05/19 08:15:48;;;;;;;17.05;7.63;;;11.40;99.90;;;;;;4872512;29;20049;-87
2021/05/19 08:18:17;;;;;;;15.70;8.40;;;11.40;99.90;;;;;;4876044;29;20044;-89
2021/05/19 08:20:45;;;;;;;17.23;9.50;;;11.50;99.90;;;;;;4855612;29;20054;-87
2021/05/19 08:23:13;;;;;;;17.30;8.68;;;11.50;99.90;;;;;;4889093;29;20533;-88
2021/05/19 08:25:41;;;;;;;16.38;8.70;;;11.60;99.90;;;;;;4888855;29;20049;-87
2021/05/19 08:28:08;;;;;;;15.43;8.75;;;12.00;99.90;;;;;;4892285;29;20052;-86
2021/05/19 08:30:36;;;;;;;17.00;8.82;;;11.80;99.90;;;;;;4875294;29;20408;-88
2021/05/19 08:33:04;;;;;;;16.45;8.85;;;11.90;99.90;;;;;;4864061;29;20056;-89
2021/05/19 08:35:32;;;;;;;17.25;9.77;;;12.00;99.90;;;;;;4876349;29;20056;-88
2021/05/19 08:38:00;;;;;;;15.15;8.38;;;12.90;99.90;;;;;;4870971;29;20095;-89
2021/05/19 08:40:30;;;;;;;15.82;8.18;;;12.10;99.90;;;;;;4862913;29;20052;-90
2021/05/19 08:42:58;;;;;;;19.92;8.45;;;12.20;99.90;;;;;;4865188;29;20049;-88
2021/05/19 08:45:26;;;;;;;12.68;7.97;;;12.30;99.90;;;;;;4861309;29;20075;-89
2021/05/19 08:47:59;;;;;;;14.85;8.18;;;12.30;99.90;;;;;;4876928;29;20053;-88
2021/05/19 08:50:29;;;;;;;12.73;8.35;;;12.40;99.90;;;;;;4848868;29;20049;-89
2021/05/19 08:52:58;;;;;;;13.80;7.53;;;12.50;99.90;;;;;;4861117;29;20053;-89
2021/05/19 08:55:27;;;;;;;16.40;8.60;;;12.50;99.90;;;;;;4876493;29;20489;-89
2021/05/19 08:57:55;;;;;;;18.88;8.60;;;12.60;99.90;;;;;;4861375;29;20064;-89
2021/05/19 09:00:24;;;;;;;11.77;6.70;;;12.70;99.90;;;;;;4856872;29;20060;-88
2021/05/19 09:03:10;;;;;;;14.15;7.65;;;12.80;99.90;;;;;;4843967;29;20060;-90
2021/05/19 09:05:44;;;;;;;11.27;6.10;;;12.80;99.90;;;;;;4838471;29;20053;-88
2021/05/19 09:08:19;;;;;;;11.77;5.78;;;12.90;99.90;;;;;;4860283;29;20045;-88
2021/05/19 09:10:59;;;;;;;14.57;5.93;;;12.90;99.90;;;;;;4840916;29;20457;-89
2021/05/19 09:13:44;;;;;;;15.25;6.70;;;13.00;99.90;;;;;;4858540;29;20064;-89
2021/05/19 09:16:25;;;;;;;13.90;5.85;;;13.00;99.90;;;;;;4855850;29;20053;-89
2021/05/19 09:18:56;;;;;;;13.88;5.85;;;13.10;99.90;;;;;;4858631;29;20045;-88
2021/05/19 09:21:42;;;;;;;10.43;5.82;;;13.10;99.90;;;;;;4860230;29;20060;-89
2021/05/19 09:24:12;;;;;;;7.30;5.43;;;13.40;99.90;;;;;;4877897;29;20053;-88
2021/05/19 09:27:04;;;;;;;10.15;5.63;;;13.00;99.90;;;;;;4866918;29;20386;-88
2021/05/19 09:29:53;;;;;;;10.13;5.40;;;13.00;99.90;;;;;;4838992;29;20057;-87
2021/05/19 09:32:21;;;;;;;8.68;5.00;;;13.00;99.90;;;;;;4871932;29;20056;-89
2021/05/19 09:34:53;;;;;;;7.85;4.55;;;13.00;99.90;;;;;;4859801;29;20061;-89
2021/05/19 09:37:26;;;;;;;10.02;5.32;;;12.90;99.90;;;;;;4853181;29;20049;-88
2021/05/19 09:39:56;;;;;;;8.13;4.65;;;13.00;99.90;;;;;;4887494;29;20074;-88
2021/05/19 09:42:49;;;;;;;7.65;4.53;;;13.10;99.90;;;;;;4856475;29;20064;-88
2021/05/19 09:45:38;;;;;;;6.88;3.65;;;13.10;99.90;;;;;;4872082;29;20053;-89
2021/05/19 09:48:14;;;;;;;3.85;3.30;;;13.10;99.90;;;;;;4875123;29;20072;-88
2021/05/19 09:50:43;;;;;;;5.68;2.88;;;13.20;99.90;;;;;;4874476;29;20555;-88
2021/05/19 09:53:16;;;;;;;8.70;3.78;;;13.20;99.90;;;;;;4889593;29;20064;-88
2021/05/19 09:55:51;;;;;;;10.70;4.18;;;13.30;99.90;;;;;;4874017;29;20056;-89
2021/05/19 09:58:36;;;;;;;4.82;2.17;;;13.90;99.90;;;;;;4861364;29;20057;-88
2021/05/19 10:01:05;;;;;;;4.78;2.38;;;13.50;99.90;;;;;;4872298;29;20053;-87
2021/05/19 10:03:37;;;;;;;2.97;2.00;;;13.60;99.90;;;;;;4519101;29;10000498;-87
2021/05/19 10:08:43;;;;;;;4.18;2.85;;;13.90;99.90;;;;;;4875222;29;20337;-88
2021/05/19 10:11:13;;;;;;;5.40;2.75;;;14.00;99.90;;;;;;4860860;29;20052;-87
2021/05/19 10:13:43;;;;;;;3.35;2.00;;;14.20;99.90;;;;;;4880141;29;20478;-88
2021/05/19 10:16:16;;;;;;;4.20;1.98;;;14.30;99.90;;;;;;4864494;29;20060;-87
2021/05/19 10:18:52;;;;;;;3.92;1.70;;;14.50;99.90;;;;;;4876918;29;20060;-87
2021/05/19 10:21:32;;;;;;;5.45;1.90;;;14.70;99.90;;;;;;4873732;29;20080;-88
2021/05/19 10:24:05;;;;;;;3.40;2.47;;;14.80;99.90;;;;;;4861217;29;20056;-88
2021/05/19 10:27:01;;;;;;;2.80;2.10;;;15.10;99.90;;;;;;4877082;29;20068;-87
2021/05/19 10:29:48;;;;;;;4.00;1.35;;;15.30;99.90;;;;;;4871915;29;20048;-87
2021/05/19 10:32:22;;;;;;;3.25;1.92;;;15.60;99.90;;;;;;4842547;29;20046;-87
2021/05/19 10:34:53;;;;;;;8.65;1.95;;;15.70;99.90;;;;;;4870749;29;20053;-87
2021/05/19 10:37:38;;;;;;;4.20;1.70;;;15.70;99.90;;;;;;4851024;29;20065;-89
2021/05/19 10:40:13;;;;;;;5.47;1.95;;;15.70;99.90;;;;;;4858206;29;20520;-87
2021/05/19 10:42:51;;;;;;;10.75;1.63;;;15.80;99.90;;;;;;4860670;29;20057;-88
2021/05/19 10:45:22;;;;;;;7.00;2.08;;;15.90;99.90;;;;;;4857351;29;20092;-87
2021/05/19 10:47:49;;;;;;;5.20;1.50;;;16.10;99.90;;;;;;4868731;29;20076;-87
2021/05/19 10:50:37;;;;;;;4.13;1.65;;;16.20;99.90;;;;;;4855318;29;21273;-87
2021/05/19 10:59:00;;;;;;;5.63;2.05;;;16.60;99.90;;;;;;4868478;29;20056;-89
2021/05/19 11:01:40;;;;;;;1.33;1.20;;;16.60;99.90;;;;;;4851738;29;20057;-87
2021/05/19 11:04:17;;;;;;;7.97;2.10;;;16.30;99.90;;;;;;4880790;29;20409;-89
2021/05/19 11:06:57;;;;;;;5.55;1.52;;;16.10;99.90;;;;;;4874898;29;20052;-87
2021/05/19 11:09:40;;;;;;;3.08;1.33;;;16.00;99.90;;;;;;4859214;29;20061;-88
2021/05/19 11:12:23;;;;;;;6.72;1.60;;;16.10;99.90;;;;;;4861229;29;20839;-93
2021/05/19 11:20:12;;;;;;;3.17;1.80;;;16.60;99.90;;;;;;4845345;29;20296;-89
2021/05/19 11:22:39;;;;;;;4.13;1.40;;;16.60;99.90;;;;;;4853005;29;20065;-89
2021/05/19 11:25:09;;;;;;;5.30;1.45;;;16.60;99.90;;;;;;4881572;29;20049;-89
2021/05/19 11:27:37;;;;;;;5.60;1.50;;;16.70;99.90;;;;;;4882819;29;20045;-89
2021/05/19 11:30:08;;;;;;;1.58;1.08;;;16.80;99.90;;;;;;4880154;29;20302;-89
2021/05/19 11:32:37;;;;;;;2.20;1.23;;;17.00;99.90;;;;;;4878809;29;20061;-91
2021/05/19 11:35:20;;;;;;;2.55;1.35;;;17.20;99.90;;;;;;4891091;23;20778;-90
2021/05/19 11:38:02;;;;;;;2.42;1.25;;;17.40;99.90;;;;;;4868819;29;20061;-89
2021/05/19 11:40:51;;;;;;;1.85;1.05;;;17.60;99.90;;;;;;4869237;29;20068;-89
2021/05/19 11:43:21;;;;;;;2.55;1.63;;;17.90;99.90;;;;;;4864191;29;20404;-89
2021/05/19 11:45:58;;;;;;;2.15;1.27;;;17.60;99.90;;;;;;4869185;29;20045;-90
2021/05/19 11:48:29;;;;;;;4.10;1.20;;;16.30;99.90;;;;;;4878792;29;20048;-89
2021/05/19 11:51:23;;;;;;;9.23;2.60;;;17.30;99.90;;;;;;4885421;29;20059;-90
2021/05/19 11:54:02;;;;;;;8.07;3.45;;;17.00;99.90;;;;;;4898774;29;20555;-89
2021/05/19 11:56:46;;;;;;;5.93;1.63;;;16.60;99.90;;;;;;4890439;29;20053;-89
2021/05/19 11:59:21;;;;;;;2.35;1.13;;;15.50;99.90;;;;;;4894222;29;20060;-90
2021/05/19 12:02:12;;;;;;;4.03;0.90;;;16.00;99.90;;;;;;4870234;29;20635;-91
2021/05/19 12:04:42;;;;;;;9.48;2.20;;;15.90;99.90;;;;;;4878088;29;20643;-89
2021/05/19 12:07:12;;;;;;;3.80;1.30;;;15.70;99.90;;;;;;4863688;29;20059;-91
2021/05/19 12:09:44;;;;;;;3.28;1.08;;;15.70;99.90;;;;;;4524986;29;10000126;-88
2021/05/19 12:12:17;;;;;;;7.00;1.23;;;15.70;99.90;;;;;;4864433;29;20049;-89
2021/05/19 12:14:56;;;;;;;1.80;1.10;;;15.70;99.90;;;;;;4899122;29;20064;-90
2021/05/19 12:17:41;;;;;;;3.53;1.13;;;15.90;99.90;;;;;;4863582;29;20425;-90
2021/05/19 12:20:22;;;;;;;12.93;1.98;;;16.10;99.90;;;;;;4876529;29;20064;-91
2021/05/19 12:22:50;;;;;;;8.90;1.88;;;16.40;99.90;;;;;;4877576;29;20056;-91
2021/05/19 12:25:30;;;;;;;4.55;1.55;;;16.80;99.90;;;;;;4901542;29;20055;-90
2021/05/19 12:28:07;;;;;;;7.25;1.73;;;17.10;99.90;;;;;;4851419;29;20572;-90
2021/05/19 12:30:57;;;;;;;5.53;1.73;;;17.30;99.90;;;;;;4879336;29;20052;-90
2021/05/19 12:33:57;;;;;;;4.03;2.50;;;17.50;99.90;;;;;;4864524;29;20053;-89
2021/05/19 12:36:29;;;;;;;7.93;2.00;;;17.40;99.90;;;;;;4876561;24;20056;-89
2021/05/19 12:39:00;;;;;;;7.50;2.08;;;17.30;99.90;;;;;;4901468;29;20059;-91
2021/05/19 12:41:47;;;;;;;9.55;2.25;;;17.20;99.90;;;;;;4860458;29;20048;-89
2021/05/19 12:44:26;;;;;;;5.97;2.00;;;17.20;99.90;;;;;;4875274;29;20493;-91
2021/05/19 12:47:07;;;;;;;6.88;2.67;;;17.70;99.90;;;;;;4858591;29;20052;-90
2021/05/19 12:50:03;;;;;;;10.40;2.25;;;16.40;99.90;;;;;;4894459;29;20059;-90
2021/05/19 12:52:35;;;;;;;6.20;1.73;;;17.30;99.90;;;;;;4877306;29;20048;-90
2021/05/19 12:55:29;;;;;;;;;;;18.10;99.90;;;;;;4883229;29;20060;-90
2021/05/19 12:58:10;;;;;;;8.52;2.03;;;18.20;99.80;;;;;;4893617;29;19923;-92
2021/05/19 13:00:55;;;;;;;8.20;1.83;;;18.10;99.30;;;;;;4897666;29;20068;-92
2021/05/19 13:03:35;;;;;;;3.08;1.13;;;18.20;99.10;;;;;;4878527;29;20052;-90
2021/05/19 13:06:06;;;;;;;8.38;1.10;;;18.30;98.30;;;;;;4866919;29;20413;-92
2021/05/19 13:08:34;;;;;;;6.65;1.17;;;18.50;97.30;;;;;;4898419;29;20064;-90
2021/05/19 13:11:06;;;;;;;6.68;1.20;;;18.70;96.90;;;;;;4893624;29;20071;-88
2021/05/19 13:13:43;;;;;;;7.65;1.10;;;18.80;96.70;;;;;;4860558;29;20048;-88
2021/05/19 13:16:35;;;;;;;7.40;1.33;;;18.70;96.20;;;;;;4873624;29;20057;-89
2021/05/19 13:19:11;;;;;;;4.97;1.83;;;18.50;94.70;;;;;;4875705;29;20051;-88
2021/05/19 13:21:46;;;;;;;4.13;1.48;;;18.40;96.00;;;;;;4873553;29;20059;-89
2021/05/19 13:24:18;;;;;;;5.05;1.40;;;18.60;96.80;;;;;;4874987;29;20060;-88
2021/05/19 13:26:55;;;;;;;7.07;1.40;;;18.90;96.50;;;;;;4876195;29;20059;-89
2021/05/19 13:29:25;;;;;;;5.85;1.73;;;19.30;95.80;;;;;;4874546;29;20062;-88
2021/05/19 13:36:58;;;;;;;2.22;0.80;;;19.80;90.70;;;;;;4869996;29;20060;-89